createdAt,value
2022-11-03T00:06:52.065Z,6.81
2022-11-03T00:16:53.569Z,6.72
2022-11-03T00:26:54.967Z,6.52
2022-11-03T00:36:56.408Z,6.40
2022-11-03T00:46:57.737Z,6.12
2022-11-03T00:56:59.025Z,6.04
2022-11-03T01:07:00.482Z,6.05
2022-11-03T01:17:01.922Z,5.98
2022-11-03T01:27:03.253Z,5.82
2022-11-03T01:37:04.567Z,5.72
2022-11-03T01:47:05.941Z,5.72
2022-11-03T01:57:07.382Z,5.71
2022-11-03T02:07:08.774Z,5.71
2022-11-03T02:17:10.109Z,5.61
2022-11-03T02:27:11.583Z,5.57
2022-11-03T02:37:13.177Z,5.55
2022-11-03T02:47:14.524Z,5.53
2022-11-03T02:57:15.895Z,5.49
2022-11-03T03:07:17.331Z,5.45
2022-11-03T03:17:19.254Z,5.40
2022-11-03T03:27:20.604Z,5.30
2022-11-03T03:37:21.980Z,5.36
2022-11-03T03:47:23.387Z,5.28
2022-11-03T03:57:24.719Z,5.07
2022-11-03T04:07:44.674Z,5.05
2022-11-03T04:18:05.063Z,5.14
2022-11-03T04:28:06.959Z,4.95
2022-11-03T04:38:08.993Z,4.81
2022-11-03T04:48:10.621Z,4.72
2022-11-03T04:58:12.055Z,4.66
2022-11-03T05:08:13.495Z,4.68
2022-11-03T05:18:14.903Z,4.73
2022-11-03T05:28:16.277Z,4.55
2022-11-03T05:38:17.841Z,4.82
2022-11-03T05:48:19.745Z,4.78
2022-11-03T05:58:21.079Z,4.76
2022-11-03T06:08:22.430Z,4.93
2022-11-03T06:18:24.507Z,5.02
2022-11-03T06:28:25.997Z,5.14
2022-11-03T06:38:27.553Z,5.28
2022-11-03T06:48:28.944Z,5.47
2022-11-03T06:58:30.376Z,5.59
2022-11-03T07:08:31.771Z,5.81
2022-11-03T07:18:33.212Z,5.98
2022-11-03T07:28:34.961Z,6.02
2022-11-03T07:38:36.263Z,6.21
2022-11-03T07:48:37.537Z,6.41
2022-11-03T07:58:39.030Z,6.49
2022-11-03T08:08:40.871Z,6.56
2022-11-03T08:18:42.324Z,6.54
2022-11-03T08:28:43.679Z,6.76
2022-11-03T08:38:45.091Z,7.24
2022-11-03T08:48:46.534Z,7.51
2022-11-03T08:58:47.942Z,7.79
2022-11-03T09:19:10.588Z,8.46
2022-11-03T09:29:12.007Z,8.63
2022-11-03T09:39:13.338Z,8.85
2022-11-03T09:49:14.723Z,9.33
2022-11-03T09:59:16.125Z,9.68
2022-11-03T10:09:17.609Z,9.86
2022-11-03T10:19:18.992Z,10.15
2022-11-03T10:39:21.547Z,10.50
2022-11-03T10:49:22.818Z,10.59
2022-11-03T10:59:24.237Z,10.75
2022-11-03T11:09:25.883Z,10.87
2022-11-03T11:19:27.236Z,11.01
2022-11-03T11:29:28.651Z,11.25
2022-11-03T11:39:31.208Z,11.19
2022-11-03T11:49:32.575Z,11.18
2022-11-03T11:59:33.847Z,11.10
2022-11-03T12:09:35.240Z,11.15
2022-11-03T12:19:36.863Z,11.27
2022-11-03T12:29:38.605Z,11.43
2022-11-03T12:39:39.875Z,11.38
2022-11-03T12:49:41.194Z,11.34
2022-11-03T12:59:42.634Z,11.18
2022-11-03T13:09:44.016Z,11.25
2022-11-03T13:19:45.354Z,11.27
2022-11-03T13:29:46.789Z,11.39
2022-11-03T13:39:48.115Z,11.43
2022-11-03T13:50:13.031Z,11.48
2022-11-03T14:00:17.127Z,11.73
2022-11-03T14:10:18.475Z,11.62
2022-11-03T14:20:19.923Z,11.68
2022-11-03T14:30:21.372Z,11.41
2022-11-03T14:40:41.382Z,11.38
2022-11-03T14:50:42.765Z,11.35
2022-11-03T15:00:44.810Z,11.41
2022-11-03T15:10:46.243Z,11.31
2022-11-03T15:20:47.679Z,11.22
2022-11-03T15:30:48.945Z,10.98
2022-11-03T15:40:50.306Z,11.00
2022-11-03T15:50:51.539Z,10.94
2022-11-03T16:00:52.871Z,10.95
2022-11-03T16:10:58.049Z,10.78
2022-11-03T16:20:59.599Z,10.68
2022-11-03T16:31:01.196Z,10.65
2022-11-03T16:41:02.574Z,10.64
2022-11-03T16:51:03.904Z,10.65
2022-11-03T17:01:05.487Z,10.63
2022-11-03T17:11:06.969Z,10.62
2022-11-03T17:21:08.308Z,10.63
2022-11-03T17:31:10.419Z,10.58
2022-11-03T17:41:15.021Z,10.54
2022-11-03T17:51:19.532Z,10.53
2022-11-03T18:01:21.143Z,10.55
2022-11-03T18:11:41.133Z,10.53
2022-11-03T18:21:42.604Z,10.52
2022-11-03T18:31:44.093Z,10.54
2022-11-03T18:41:45.994Z,10.53
2022-11-03T18:51:47.998Z,10.47
2022-11-03T19:01:49.566Z,10.50
2022-11-03T19:11:52.227Z,10.46
2022-11-03T19:21:53.575Z,10.42
2022-11-03T19:31:54.858Z,10.45
2022-11-03T19:42:14.811Z,10.44
2022-11-03T19:52:16.208Z,10.45
2022-11-03T20:02:17.681Z,10.43
2022-11-03T20:12:19.177Z,10.47
2022-11-03T20:22:20.438Z,10.49
2022-11-03T20:32:21.849Z,10.48
2022-11-03T20:42:23.269Z,10.53
2022-11-03T20:52:24.647Z,10.60
2022-11-03T21:02:26.147Z,10.58
2022-11-03T21:12:27.543Z,10.56
2022-11-03T21:22:51.522Z,10.48
2022-11-03T21:32:50.091Z,10.58
2022-11-03T21:43:10.395Z,10.52
2022-11-03T21:53:12.227Z,10.55
2022-11-03T22:03:14.370Z,10.60
2022-11-03T22:13:15.731Z,10.59
2022-11-03T22:23:35.713Z,10.58
2022-11-03T22:33:57.075Z,10.50
2022-11-03T22:44:17.097Z,10.40
2022-11-03T22:54:18.437Z,10.34
2022-11-03T23:04:19.880Z,10.31
2022-11-03T23:14:21.579Z,10.28
2022-11-03T23:24:45.049Z,10.20
2022-11-03T23:34:47.284Z,10.15
2022-11-03T23:45:07.302Z,10.21
2022-11-03T23:55:08.860Z,10.19
